CDG4675 ZSQD-ZGGG
Flight info
| Callsign | CDG4675 |
|---|---|
| Flight time | N/A |
| Altitude | 34100 |
| Route | LATUX W108 MATNU/K0869S1040 W115 PINOT W11 PUD A599 NXD W131 AKDIM A470 DUBGO W134 ELNEX A599 PLT W19 OLPAB |
| Aircraft | B738/M-SDE2E3FGHIRWXY/LB1 |
Departure
| Time | 2026-05-01 07:23 |
|---|---|
| Airport | Qingdao Jiaodong International Airport (ZSQD) |
Arrival
| Time | N/A |
|---|---|
| Airport | Guangzhou Baiyun International Airport (ZGGG) |
| Time | Latitude | Longitude | Altitude | Speed | Heading |
|---|---|---|---|---|---|
| 2026-05-01 07:23 | 36.27013 | 120.18395 | 3714 ft | 242 kts | 70° |
| 2026-05-01 07:23 | 36.28160 | 120.22618 | 4525 ft | 271 kts | 72° |
| 2026-05-01 07:24 | 36.28733 | 120.24862 | 5083 ft | 280 kts | 72° |
| 2026-05-01 07:24 | 36.29328 | 120.27201 | 5625 ft | 288 kts | 72° |
| 2026-05-01 07:24 | 36.29831 | 120.29620 | 6259 ft | 292 kts | 81° |
| 2026-05-01 07:24 | 36.29794 | 120.32114 | 6880 ft | 295 kts | 104° |
| 2026-05-01 07:25 | 36.28947 | 120.34417 | 7555 ft | 296 kts | 127° |
| 2026-05-01 07:25 | 36.27541 | 120.36266 | 8386 ft | 294 kts | 141° |
| 2026-05-01 07:25 | 36.25826 | 120.37629 | 9161 ft | 293 kts | 157° |
| 2026-05-01 07:25 | 36.23910 | 120.38458 | 9942 ft | 293 kts | 163° |
| 2026-05-01 07:26 | 36.21949 | 120.39137 | 10535 ft | 299 kts | 164° |
| 2026-05-01 07:26 | 36.19865 | 120.39857 | 10683 ft | 317 kts | 163° |
| 2026-05-01 07:26 | 36.17696 | 120.40650 | 10820 ft | 336 kts | 163° |
| 2026-05-01 07:26 | 36.15379 | 120.41529 | 10947 ft | 355 kts | 162° |
| 2026-05-01 07:27 | 36.12948 | 120.42469 | 11116 ft | 374 kts | 162° |
| 2026-05-01 07:27 | 36.10413 | 120.43453 | 11459 ft | 389 kts | 162° |
| 2026-05-01 07:27 | 36.07772 | 120.44479 | 11759 ft | 404 kts | 162° |
| 2026-05-01 07:27 | 36.05033 | 120.45541 | 12264 ft | 414 kts | 162° |
| 2026-05-01 07:28 | 36.02247 | 120.46619 | 12862 ft | 421 kts | 162° |
| 2026-05-01 07:28 | 35.99458 | 120.47698 | 13460 ft | 424 kts | 162° |
| 2026-05-01 07:28 | 35.96617 | 120.48808 | 14046 ft | 428 kts | 161° |
| 2026-05-01 07:28 | 35.93792 | 120.50096 | 14687 ft | 434 kts | 159° |
| 2026-05-01 07:29 | 35.90977 | 120.51555 | 15225 ft | 441 kts | 157° |
| 2026-05-01 07:29 | 35.88156 | 120.53120 | 15840 ft | 444 kts | 156° |
| 2026-05-01 07:29 | 35.85328 | 120.54727 | 16447 ft | 448 kts | 156° |
| 2026-05-01 07:29 | 35.82473 | 120.56350 | 17013 ft | 453 kts | 157° |
| 2026-05-01 07:30 | 35.79568 | 120.57984 | 17565 ft | 458 kts | 157° |
| 2026-05-01 07:30 | 35.76667 | 120.59600 | 18078 ft | 463 kts | 158° |
| 2026-05-01 07:30 | 35.73685 | 120.61247 | 18606 ft | 467 kts | 158° |
| 2026-05-01 07:30 | 35.70712 | 120.62957 | 19205 ft | 470 kts | 156° |
| 2026-05-01 07:31 | 35.67974 | 120.64701 | 19667 ft | 475 kts | 154° |
| 2026-05-01 07:31 | 35.59192 | 120.70774 | 21069 ft | 489 kts | 154° |
| 2026-05-01 07:32 | 35.53176 | 120.74954 | 21912 ft | 497 kts | 155° |
| 2026-05-01 07:32 | 35.50172 | 120.77010 | 22426 ft | 498 kts | 155° |
| 2026-05-01 07:33 | 35.43899 | 120.80826 | 23308 ft | 500 kts | 162° |
| 2026-05-01 07:33 | 35.40639 | 120.82496 | 23556 ft | 505 kts | 163° |
| 2026-05-01 07:33 | 35.34120 | 120.85616 | 24446 ft | 508 kts | 165° |
| 2026-05-01 07:34 | 35.30767 | 120.87196 | 24749 ft | 513 kts | 165° |
| 2026-05-01 07:34 | 35.24040 | 120.90391 | 25345 ft | 522 kts | 164° |
| 2026-05-01 07:34 | 35.20614 | 120.92042 | 25681 ft | 525 kts | 164° |
| 2026-05-01 07:35 | 35.17240 | 120.93684 | 26216 ft | 523 kts | 164° |
| 2026-05-01 07:35 | 35.13826 | 120.95357 | 26745 ft | 521 kts | 163° |
| 2026-05-01 07:35 | 35.10476 | 120.97013 | 27212 ft | 521 kts | 163° |
| 2026-05-01 07:35 | 35.07087 | 120.98697 | 27556 ft | 523 kts | 163° |
| 2026-05-01 07:36 | 35.03696 | 121.00384 | 27870 ft | 525 kts | 163° |
| 2026-05-01 07:36 | 35.00285 | 121.02080 | 28141 ft | 529 kts | 163° |
| 2026-05-01 07:36 | 34.96859 | 121.03782 | 28484 ft | 530 kts | 163° |
| 2026-05-01 07:36 | 34.93431 | 121.05485 | 28910 ft | 529 kts | 163° |
| 2026-05-01 07:37 | 34.86626 | 121.08863 | 29953 ft | 524 kts | 163° |
| 2026-05-01 07:37 | 34.83219 | 121.10551 | 30409 ft | 523 kts | 163° |
| 2026-05-01 07:37 | 34.79865 | 121.12210 | 30900 ft | 520 kts | 163° |
| 2026-05-01 07:38 | 34.76488 | 121.13878 | 31320 ft | 519 kts | 163° |
| 2026-05-01 07:38 | 34.73147 | 121.15524 | 31740 ft | 518 kts | 164° |
| 2026-05-01 07:38 | 34.66457 | 121.18812 | 32593 ft | 514 kts | 164° |
| 2026-05-01 07:39 | 34.63128 | 121.20445 | 32971 ft | 513 kts | 164° |
| 2026-05-01 07:39 | 34.59782 | 121.22086 | 33426 ft | 510 kts | 164° |
| 2026-05-01 07:39 | 34.53189 | 121.25318 | 34065 ft | 511 kts | 164° |
| 2026-05-01 07:40 | 34.46462 | 121.28599 | 34064 ft | 511 kts | 164° |
| 2026-05-01 07:40 | 34.39797 | 121.31855 | 34062 ft | 512 kts | 164° |
| 2026-05-01 07:41 | 34.33168 | 121.35088 | 34059 ft | 512 kts | 164° |
| 2026-05-01 07:42 | 34.23259 | 121.39922 | 34064 ft | 508 kts | 164° |
| 2026-05-01 07:42 | 34.16639 | 121.43129 | 34061 ft | 511 kts | 164° |
| 2026-05-01 07:43 | 34.10022 | 121.46333 | 34064 ft | 508 kts | 165° |
| 2026-05-01 07:43 | 34.00084 | 121.51135 | 34056 ft | 512 kts | 164° |
| 2026-05-01 07:44 | 33.86964 | 121.57464 | 34058 ft | 511 kts | 164° |
| 2026-05-01 07:45 | 33.80357 | 121.60644 | 34058 ft | 507 kts | 164° |
| 2026-05-01 07:45 | 33.73726 | 121.63826 | 34070 ft | 511 kts | 164° |
| 2026-05-01 07:46 | 33.67180 | 121.66983 | 34068 ft | 508 kts | 164° |
| 2026-05-01 07:47 | 33.57247 | 121.71845 | 34070 ft | 511 kts | 164° |
| 2026-05-01 07:47 | 33.50683 | 121.75067 | 34075 ft | 510 kts | 163° |
| 2026-05-01 07:48 | 33.40810 | 121.79894 | 34083 ft | 509 kts | 163° |
| 2026-05-01 07:48 | 33.34233 | 121.83104 | 34086 ft | 510 kts | 163° |
| 2026-05-01 07:49 | 33.24344 | 121.87912 | 34087 ft | 511 kts | 163° |
| 2026-05-01 07:50 | 33.17752 | 121.91110 | 34088 ft | 509 kts | 163° |
| 2026-05-01 07:50 | 33.07867 | 121.95892 | 34085 ft | 510 kts | 163° |
| 2026-05-01 07:51 | 33.01286 | 121.99071 | 34086 ft | 508 kts | 163° |
| 2026-05-01 07:52 | 32.91445 | 122.03817 | 34090 ft | 508 kts | 163° |
| 2026-05-01 07:52 | 32.84849 | 122.06988 | 34088 ft | 508 kts | 163° |
| 2026-05-01 07:53 | 32.74968 | 122.11728 | 34092 ft | 508 kts | 163° |
| 2026-05-01 07:53 | 32.68407 | 122.14871 | 34093 ft | 508 kts | 163° |
| 2026-05-01 07:55 | 32.51986 | 122.22720 | 34093 ft | 506 kts | 163° |
| 2026-05-01 07:56 | 32.35572 | 122.30528 | 34093 ft | 507 kts | 163° |
| 2026-05-01 07:57 | 32.25682 | 122.35223 | 34096 ft | 509 kts | 163° |
| 2026-05-01 07:58 | 32.12517 | 122.41454 | 34104 ft | 506 kts | 162° |
| 2026-05-01 07:59 | 31.99426 | 122.47626 | 34108 ft | 506 kts | 162° |
| 2026-05-01 08:00 | 31.79728 | 122.56881 | 34121 ft | 507 kts | 162° |
| 2026-05-01 08:01 | 31.69707 | 122.60603 | 34122 ft | 497 kts | 175° |
| 2026-05-01 08:01 | 31.66307 | 122.61119 | 34121 ft | 491 kts | 181° |
| 2026-05-01 08:02 | 31.56262 | 122.60308 | 34132 ft | 473 kts | 199° |
| 2026-05-01 08:02 | 31.53061 | 122.59249 | 34252 ft | 471 kts | 206° |
| 2026-05-01 08:03 | 31.47199 | 122.56074 | 35048 ft | 452 kts | 219° |
| 2026-05-01 08:03 | 31.44827 | 122.53795 | 35118 ft | 435 kts | 237° |
| 2026-05-01 08:03 | 31.42465 | 122.47581 | 35127 ft | 412 kts | 263° |
| 2026-05-01 08:04 | 31.40229 | 122.34457 | 35122 ft | 418 kts | 255° |
| 2026-05-01 08:05 | 31.36714 | 122.25060 | 35121 ft | 420 kts | 250° |
| 2026-05-01 08:06 | 31.32856 | 122.15758 | 35121 ft | 421 kts | 249° |
| 2026-05-01 08:07 | 31.27677 | 122.03406 | 35119 ft | 422 kts | 249° |
| 2026-05-01 08:08 | 31.23807 | 121.94183 | 34938 ft | 424 kts | 249° |
| 2026-05-01 08:08 | 31.21182 | 121.87936 | 34341 ft | 421 kts | 249° |
| 2026-05-01 08:09 | 31.18652 | 121.81750 | 34114 ft | 420 kts | 252° |
| 2026-05-01 08:09 | 31.16909 | 121.75225 | 34110 ft | 417 kts | 262° |
| 2026-05-01 08:10 | 31.15288 | 121.61842 | 34116 ft | 417 kts | 266° |
| 2026-05-01 08:11 | 31.13882 | 121.48357 | 34112 ft | 417 kts | 266° |
| 2026-05-01 08:12 | 31.12795 | 121.38397 | 34114 ft | 418 kts | 265° |
| 2026-05-01 08:13 | 31.10935 | 121.28388 | 34112 ft | 420 kts | 257° |
| 2026-05-01 08:13 | 31.08326 | 121.18562 | 34102 ft | 421 kts | 256° |
| 2026-05-01 08:14 | 31.06591 | 121.12041 | 34099 ft | 419 kts | 256° |
| 2026-05-01 08:14 | 31.04965 | 121.05483 | 34097 ft | 421 kts | 257° |
| 2026-05-01 08:15 | 31.02572 | 120.95628 | 34087 ft | 419 kts | 257° |